sensor_id;sensor_type;location;lat;lon;timestamp;P1;durP1;ratioP1;P2;durP2;ratioP2
54743;SDS011;40639;53.170;6.728;2024-02-26T00:01:49;13.88;;;7.75;;
54743;SDS011;40639;53.170;6.728;2024-02-26T00:04:16;14.07;;;7.95;;
54743;SDS011;40639;53.170;6.728;2024-02-26T00:06:42;15.07;;;7.85;;
54743;SDS011;40639;53.170;6.728;2024-02-26T00:09:08;13.25;;;8.02;;
54743;SDS011;40639;53.170;6.728;2024-02-26T00:11:35;15.82;;;8.45;;
54743;SDS011;40639;53.170;6.728;2024-02-26T00:14:02;16.85;;;9.10;;
54743;SDS011;40639;53.170;6.728;2024-02-26T00:16:28;18.27;;;8.48;;
54743;SDS011;40639;53.170;6.728;2024-02-26T00:18:55;15.43;;;8.85;;
54743;SDS011;40639;53.170;6.728;2024-02-26T00:21:21;15.73;;;8.48;;
54743;SDS011;40639;53.170;6.728;2024-02-26T00:23:48;15.52;;;8.98;;
54743;SDS011;40639;53.170;6.728;2024-02-26T00:26:18;17.50;;;9.55;;
54743;SDS011;40639;53.170;6.728;2024-02-26T00:28:44;17.52;;;9.32;;
54743;SDS011;40639;53.170;6.728;2024-02-26T00:31:10;17.88;;;9.70;;
54743;SDS011;40639;53.170;6.728;2024-02-26T00:33:36;17.00;;;9.68;;
54743;SDS011;40639;53.170;6.728;2024-02-26T00:36:03;17.80;;;9.07;;
54743;SDS011;40639;53.170;6.728;2024-02-26T00:38:29;16.35;;;9.90;;
54743;SDS011;40639;53.170;6.728;2024-02-26T00:40:55;20.08;;;9.95;;
54743;SDS011;40639;53.170;6.728;2024-02-26T00:43:22;17.85;;;10.70;;
54743;SDS011;40639;53.170;6.728;2024-02-26T00:45:48;17.52;;;10.32;;
54743;SDS011;40639;53.170;6.728;2024-02-26T00:48:14;17.88;;;9.75;;
54743;SDS011;40639;53.170;6.728;2024-02-26T00:50:40;17.90;;;9.45;;
54743;SDS011;40639;53.170;6.728;2024-02-26T00:53:07;17.38;;;9.75;;
54743;SDS011;40639;53.170;6.728;2024-02-26T00:55:33;16.17;;;9.45;;
54743;SDS011;40639;53.170;6.728;2024-02-26T00:57:59;16.75;;;9.48;;
54743;SDS011;40639;53.170;6.728;2024-02-26T01:00:26;17.98;;;9.40;;
54743;SDS011;40639;53.170;6.728;2024-02-26T01:02:52;19.23;;;10.68;;
54743;SDS011;40639;53.170;6.728;2024-02-26T01:05:18;16.40;;;9.15;;
54743;SDS011;40639;53.170;6.728;2024-02-26T01:07:44;18.20;;;9.55;;
54743;SDS011;40639;53.170;6.728;2024-02-26T01:10:10;17.73;;;9.65;;
54743;SDS011;40639;53.170;6.728;2024-02-26T01:12:36;15.98;;;9.20;;
54743;SDS011;40639;53.170;6.728;2024-02-26T01:15:03;19.35;;;9.68;;
54743;SDS011;40639;53.170;6.728;2024-02-26T01:17:29;16.98;;;9.02;;
54743;SDS011;40639;53.170;6.728;2024-02-26T01:19:56;16.80;;;9.27;;
54743;SDS011;40639;53.170;6.728;2024-02-26T01:22:23;16.35;;;9.20;;
54743;SDS011;40639;53.170;6.728;2024-02-26T01:24:49;17.65;;;8.45;;
54743;SDS011;40639;53.170;6.728;2024-02-26T01:27:15;16.10;;;9.35;;
54743;SDS011;40639;53.170;6.728;2024-02-26T01:29:42;14.38;;;8.50;;
54743;SDS011;40639;53.170;6.728;2024-02-26T01:32:08;17.38;;;9.43;;
54743;SDS011;40639;53.170;6.728;2024-02-26T01:34:34;14.45;;;8.35;;
54743;SDS011;40639;53.170;6.728;2024-02-26T01:37:02;20.08;;;9.35;;
54743;SDS011;40639;53.170;6.728;2024-02-26T01:39:28;14.40;;;8.88;;
54743;SDS011;40639;53.170;6.728;2024-02-26T01:41:55;16.65;;;9.10;;
54743;SDS011;40639;53.170;6.728;2024-02-26T01:44:21;15.20;;;8.90;;
54743;SDS011;40639;53.170;6.728;2024-02-26T01:46:47;18.35;;;9.05;;
54743;SDS011;40639;53.170;6.728;2024-02-26T01:49:13;14.43;;;8.50;;
54743;SDS011;40639;53.170;6.728;2024-02-26T01:51:40;16.75;;;8.93;;
54743;SDS011;40639;53.170;6.728;2024-02-26T01:54:07;16.35;;;9.00;;
54743;SDS011;40639;53.170;6.728;2024-02-26T01:56:34;16.20;;;9.25;;
54743;SDS011;40639;53.170;6.728;2024-02-26T01:59:01;14.43;;;8.40;;
54743;SDS011;40639;53.170;6.728;2024-02-26T02:01:27;16.77;;;8.88;;
54743;SDS011;40639;53.170;6.728;2024-02-26T02:03:58;14.57;;;8.35;;
54743;SDS011;40639;53.170;6.728;2024-02-26T02:06:25;14.57;;;8.10;;
54743;SDS011;40639;53.170;6.728;2024-02-26T02:08:52;13.15;;;8.00;;
54743;SDS011;40639;53.170;6.728;2024-02-26T02:11:19;13.35;;;7.15;;
54743;SDS011;40639;53.170;6.728;2024-02-26T02:13:45;12.82;;;7.18;;
54743;SDS011;40639;53.170;6.728;2024-02-26T02:16:11;12.15;;;7.32;;
54743;SDS011;40639;53.170;6.728;2024-02-26T02:18:37;12.32;;;6.90;;
54743;SDS011;40639;53.170;6.728;2024-02-26T02:21:03;11.68;;;7.07;;
54743;SDS011;40639;53.170;6.728;2024-02-26T02:23:29;13.05;;;6.95;;
54743;SDS011;40639;53.170;6.728;2024-02-26T02:25:56;12.18;;;7.13;;
54743;SDS011;40639;53.170;6.728;2024-02-26T02:28:23;10.98;;;6.28;;
54743;SDS011;40639;53.170;6.728;2024-02-26T02:30:51;9.80;;;6.13;;
54743;SDS011;40639;53.170;6.728;2024-02-26T02:33:17;10.02;;;5.95;;
54743;SDS011;40639;53.170;6.728;2024-02-26T02:35:43;10.40;;;5.97;;
54743;SDS011;40639;53.170;6.728;2024-02-26T02:38:10;10.38;;;6.20;;
54743;SDS011;40639;53.170;6.728;2024-02-26T02:40:36;9.68;;;5.28;;
54743;SDS011;40639;53.170;6.728;2024-02-26T02:43:03;9.18;;;5.10;;
54743;SDS011;40639;53.170;6.728;2024-02-26T02:45:29;10.13;;;5.30;;
54743;SDS011;40639;53.170;6.728;2024-02-26T02:47:56;8.48;;;5.10;;
54743;SDS011;40639;53.170;6.728;2024-02-26T02:50:22;7.43;;;4.65;;
54743;SDS011;40639;53.170;6.728;2024-02-26T02:52:48;9.02;;;5.15;;
54743;SDS011;40639;53.170;6.728;2024-02-26T02:55:15;7.90;;;4.68;;
54743;SDS011;40639;53.170;6.728;2024-02-26T02:57:41;7.78;;;4.63;;
54743;SDS011;40639;53.170;6.728;2024-02-26T03:00:08;7.93;;;4.65;;
54743;SDS011;40639;53.170;6.728;2024-02-26T03:02:34;8.20;;;4.78;;
54743;SDS011;40639;53.170;6.728;2024-02-26T03:05:01;7.57;;;4.30;;
54743;SDS011;40639;53.170;6.728;2024-02-26T03:07:27;8.40;;;4.75;;
54743;SDS011;40639;53.170;6.728;2024-02-26T03:09:54;8.27;;;4.68;;
54743;SDS011;40639;53.170;6.728;2024-02-26T03:12:20;9.13;;;4.28;;
54743;SDS011;40639;53.170;6.728;2024-02-26T03:14:46;6.47;;;3.83;;
54743;SDS011;40639;53.170;6.728;2024-02-26T03:17:12;7.05;;;3.92;;
54743;SDS011;40639;53.170;6.728;2024-02-26T03:19:38;7.43;;;4.30;;
54743;SDS011;40639;53.170;6.728;2024-02-26T03:22:05;8.65;;;4.18;;
54743;SDS011;40639;53.170;6.728;2024-02-26T03:24:31;8.23;;;4.15;;
54743;SDS011;40639;53.170;6.728;2024-02-26T03:26:57;8.05;;;4.47;;
54743;SDS011;40639;53.170;6.728;2024-02-26T03:29:23;8.60;;;4.57;;
54743;SDS011;40639;53.170;6.728;2024-02-26T03:31:49;8.55;;;4.45;;
54743;SDS011;40639;53.170;6.728;2024-02-26T03:34:15;9.07;;;4.78;;
54743;SDS011;40639;53.170;6.728;2024-02-26T03:36:43;7.03;;;4.18;;
54743;SDS011;40639;53.170;6.728;2024-02-26T03:39:09;8.35;;;4.30;;
54743;SDS011;40639;53.170;6.728;2024-02-26T03:41:36;8.48;;;4.30;;
54743;SDS011;40639;53.170;6.728;2024-02-26T03:44:02;9.35;;;4.80;;
54743;SDS011;40639;53.170;6.728;2024-02-26T03:46:28;7.65;;;4.35;;
54743;SDS011;40639;53.170;6.728;2024-02-26T03:48:54;9.63;;;4.97;;
54743;SDS011;40639;53.170;6.728;2024-02-26T03:51:20;9.43;;;4.80;;
54743;SDS011;40639;53.170;6.728;2024-02-26T03:53:47;7.97;;;4.22;;
54743;SDS011;40639;53.170;6.728;2024-02-26T03:56:13;9.98;;;4.95;;
54743;SDS011;40639;53.170;6.728;2024-02-26T03:58:39;9.20;;;4.78;;
54743;SDS011;40639;53.170;6.728;2024-02-26T04:01:08;8.90;;;4.90;;
54743;SDS011;40639;53.170;6.728;2024-02-26T04:03:34;10.30;;;5.18;;
54743;SDS011;40639;53.170;6.728;2024-02-26T04:06:01;9.23;;;4.63;;
54743;SDS011;40639;53.170;6.728;2024-02-26T04:08:28;8.68;;;3.95;;
54743;SDS011;40639;53.170;6.728;2024-02-26T04:10:54;7.80;;;3.65;;
54743;SDS011;40639;53.170;6.728;2024-02-26T04:13:20;7.15;;;3.85;;
54743;SDS011;40639;53.170;6.728;2024-02-26T04:15:46;8.07;;;3.95;;
54743;SDS011;40639;53.170;6.728;2024-02-26T04:18:12;8.25;;;3.50;;
54743;SDS011;40639;53.170;6.728;2024-02-26T04:20:39;8.55;;;4.18;;
54743;SDS011;40639;53.170;6.728;2024-02-26T04:23:07;9.77;;;3.75;;
54743;SDS011;40639;53.170;6.728;2024-02-26T04:25:33;6.18;;;3.25;;
54743;SDS011;40639;53.170;6.728;2024-02-26T04:27:59;6.80;;;3.45;;
54743;SDS011;40639;53.170;6.728;2024-02-26T04:30:25;7.05;;;3.40;;
54743;SDS011;40639;53.170;6.728;2024-02-26T04:32:52;7.70;;;3.47;;
54743;SDS011;40639;53.170;6.728;2024-02-26T04:35:18;7.45;;;3.67;;
54743;SDS011;40639;53.170;6.728;2024-02-26T04:37:44;6.65;;;3.70;;
54743;SDS011;40639;53.170;6.728;2024-02-26T04:40:10;5.50;;;3.22;;
54743;SDS011;40639;53.170;6.728;2024-02-26T04:42:36;8.70;;;3.85;;
54743;SDS011;40639;53.170;6.728;2024-02-26T04:45:03;6.07;;;3.33;;
54743;SDS011;40639;53.170;6.728;2024-02-26T04:47:29;5.93;;;3.10;;
54743;SDS011;40639;53.170;6.728;2024-02-26T04:49:55;5.85;;;3.20;;
54743;SDS011;40639;53.170;6.728;2024-02-26T04:52:21;5.80;;;2.95;;
54743;SDS011;40639;53.170;6.728;2024-02-26T04:54:47;5.57;;;3.20;;
54743;SDS011;40639;53.170;6.728;2024-02-26T04:57:13;4.57;;;2.53;;
54743;SDS011;40639;53.170;6.728;2024-02-26T04:59:39;6.68;;;3.40;;
54743;SDS011;40639;53.170;6.728;2024-02-26T05:02:07;6.65;;;3.10;;
54743;SDS011;40639;53.170;6.728;2024-02-26T05:04:33;6.20;;;2.83;;
54743;SDS011;40639;53.170;6.728;2024-02-26T05:06:59;5.25;;;2.90;;
54743;SDS011;40639;53.170;6.728;2024-02-26T05:09:25;6.13;;;2.63;;
54743;SDS011;40639;53.170;6.728;2024-02-26T05:11:51;5.93;;;2.58;;
54743;SDS011;40639;53.170;6.728;2024-02-26T05:14:18;4.60;;;2.45;;
54743;SDS011;40639;53.170;6.728;2024-02-26T05:16:44;4.40;;;2.55;;
54743;SDS011;40639;53.170;6.728;2024-02-26T05:19:10;7.25;;;3.00;;
54743;SDS011;40639;53.170;6.728;2024-02-26T05:21:36;4.97;;;2.65;;
54743;SDS011;40639;53.170;6.728;2024-02-26T05:24:03;4.70;;;2.58;;
54743;SDS011;40639;53.170;6.728;2024-02-26T05:26:29;5.20;;;2.35;;
54743;SDS011;40639;53.170;6.728;2024-02-26T05:28:55;6.85;;;2.67;;
54743;SDS011;40639;53.170;6.728;2024-02-26T05:31:25;5.75;;;2.65;;
54743;SDS011;40639;53.170;6.728;2024-02-26T05:33:51;4.85;;;2.50;;
54743;SDS011;40639;53.170;6.728;2024-02-26T05:36:21;5.25;;;2.55;;
54743;SDS011;40639;53.170;6.728;2024-02-26T05:38:48;5.93;;;2.53;;
54743;SDS011;40639;53.170;6.728;2024-02-26T05:41:17;4.35;;;2.28;;
54743;SDS011;40639;53.170;6.728;2024-02-26T05:43:48;7.90;;;3.65;;
54743;SDS011;40639;53.170;6.728;2024-02-26T05:46:18;4.60;;;2.88;;
54743;SDS011;40639;53.170;6.728;2024-02-26T05:48:46;4.30;;;2.42;;
54743;SDS011;40639;53.170;6.728;2024-02-26T05:51:12;5.07;;;2.40;;
54743;SDS011;40639;53.170;6.728;2024-02-26T05:53:39;6.35;;;2.40;;
54743;SDS011;40639;53.170;6.728;2024-02-26T05:56:05;3.67;;;2.15;;
54743;SDS011;40639;53.170;6.728;2024-02-26T05:58:31;4.35;;;2.20;;
54743;SDS011;40639;53.170;6.728;2024-02-26T06:00:58;6.28;;;2.50;;
54743;SDS011;40639;53.170;6.728;2024-02-26T06:03:25;4.75;;;2.53;;
54743;SDS011;40639;53.170;6.728;2024-02-26T06:05:51;5.20;;;2.45;;
54743;SDS011;40639;53.170;6.728;2024-02-26T06:08:17;6.10;;;2.30;;
54743;SDS011;40639;53.170;6.728;2024-02-26T06:10:44;3.88;;;2.25;;
54743;SDS011;40639;53.170;6.728;2024-02-26T06:13:10;3.47;;;2.20;;
54743;SDS011;40639;53.170;6.728;2024-02-26T06:15:36;5.25;;;2.33;;
54743;SDS011;40639;53.170;6.728;2024-02-26T06:18:02;4.03;;;2.13;;
54743;SDS011;40639;53.170;6.728;2024-02-26T06:20:29;4.10;;;2.08;;
54743;SDS011;40639;53.170;6.728;2024-02-26T06:22:55;4.22;;;2.20;;
54743;SDS011;40639;53.170;6.728;2024-02-26T06:25:21;5.10;;;2.70;;
54743;SDS011;40639;53.170;6.728;2024-02-26T06:27:47;4.57;;;2.33;;
54743;SDS011;40639;53.170;6.728;2024-02-26T06:30:13;4.13;;;2.40;;
54743;SDS011;40639;53.170;6.728;2024-02-26T06:32:39;4.07;;;2.28;;
54743;SDS011;40639;53.170;6.728;2024-02-26T06:35:06;6.18;;;2.72;;
54743;SDS011;40639;53.170;6.728;2024-02-26T06:37:34;3.63;;;2.35;;
54743;SDS011;40639;53.170;6.728;2024-02-26T06:40:01;5.65;;;2.40;;
54743;SDS011;40639;53.170;6.728;2024-02-26T06:42:31;4.63;;;2.78;;
54743;SDS011;40639;53.170;6.728;2024-02-26T06:44:58;4.68;;;2.40;;
54743;SDS011;40639;53.170;6.728;2024-02-26T06:47:24;4.57;;;2.70;;
54743;SDS011;40639;53.170;6.728;2024-02-26T06:49:51;4.13;;;2.22;;
54743;SDS011;40639;53.170;6.728;2024-02-26T06:52:17;4.85;;;2.45;;
54743;SDS011;40639;53.170;6.728;2024-02-26T06:54:43;4.90;;;2.55;;
54743;SDS011;40639;53.170;6.728;2024-02-26T06:57:10;4.93;;;2.38;;
54743;SDS011;40639;53.170;6.728;2024-02-26T06:59:36;3.83;;;2.42;;
54743;SDS011;40639;53.170;6.728;2024-02-26T07:02:02;7.05;;;2.88;;
54743;SDS011;40639;53.170;6.728;2024-02-26T07:04:28;6.70;;;2.85;;
54743;SDS011;40639;53.170;6.728;2024-02-26T07:06:57;4.90;;;2.90;;
54743;SDS011;40639;53.170;6.728;2024-02-26T07:09:23;4.03;;;2.55;;
54743;SDS011;40639;53.170;6.728;2024-02-26T07:11:50;5.95;;;2.50;;
54743;SDS011;40639;53.170;6.728;2024-02-26T07:14:16;6.95;;;2.60;;
54743;SDS011;40639;53.170;6.728;2024-02-26T07:16:42;7.13;;;2.63;;
54743;SDS011;40639;53.170;6.728;2024-02-26T07:19:08;7.40;;;2.75;;
54743;SDS011;40639;53.170;6.728;2024-02-26T07:21:34;3.22;;;2.10;;
54743;SDS011;40639;53.170;6.728;2024-02-26T07:24:00;4.70;;;2.58;;
54743;SDS011;40639;53.170;6.728;2024-02-26T07:26:27;5.65;;;2.20;;
54743;SDS011;40639;53.170;6.728;2024-02-26T07:28:55;5.85;;;2.17;;
54743;SDS011;40639;53.170;6.728;2024-02-26T07:31:21;6.40;;;2.65;;
54743;SDS011;40639;53.170;6.728;2024-02-26T07:33:47;4.32;;;2.33;;
54743;SDS011;40639;53.170;6.728;2024-02-26T07:36:13;5.63;;;2.72;;
54743;SDS011;40639;53.170;6.728;2024-02-26T07:38:39;4.40;;;2.70;;
54743;SDS011;40639;53.170;6.728;2024-02-26T07:41:05;3.53;;;2.30;;
54743;SDS011;40639;53.170;6.728;2024-02-26T07:43:31;5.63;;;2.80;;
54743;SDS011;40639;53.170;6.728;2024-02-26T07:45:58;4.30;;;2.60;;
54743;SDS011;40639;53.170;6.728;2024-02-26T07:48:24;5.97;;;2.60;;
54743;SDS011;40639;53.170;6.728;2024-02-26T07:50:50;3.92;;;2.60;;
54743;SDS011;40639;53.170;6.728;2024-02-26T07:53:16;4.97;;;2.88;;
54743;SDS011;40639;53.170;6.728;2024-02-26T07:55:42;4.82;;;2.50;;
54743;SDS011;40639;53.170;6.728;2024-02-26T07:58:08;4.40;;;2.72;;
54743;SDS011;40639;53.170;6.728;2024-02-26T08:00:35;4.15;;;2.40;;
54743;SDS011;40639;53.170;6.728;2024-02-26T08:03:01;6.72;;;2.45;;
54743;SDS011;40639;53.170;6.728;2024-02-26T08:05:27;6.15;;;2.40;;
54743;SDS011;40639;53.170;6.728;2024-02-26T08:07:53;5.97;;;2.40;;
54743;SDS011;40639;53.170;6.728;2024-02-26T08:10:20;5.10;;;2.45;;
54743;SDS011;40639;53.170;6.728;2024-02-26T08:12:46;4.47;;;2.40;;
54743;SDS011;40639;53.170;6.728;2024-02-26T08:15:12;4.55;;;2.40;;
54743;SDS011;40639;53.170;6.728;2024-02-26T08:17:38;5.55;;;2.55;;
54743;SDS011;40639;53.170;6.728;2024-02-26T08:20:04;3.47;;;2.10;;
54743;SDS011;40639;53.170;6.728;2024-02-26T08:22:31;3.58;;;2.13;;
54743;SDS011;40639;53.170;6.728;2024-02-26T08:24:58;6.45;;;2.42;;
54743;SDS011;40639;53.170;6.728;2024-02-26T08:27:24;4.65;;;2.35;;
54743;SDS011;40639;53.170;6.728;2024-02-26T08:29:51;4.25;;;2.50;;
54743;SDS011;40639;53.170;6.728;2024-02-26T08:32:17;5.55;;;2.95;;
54743;SDS011;40639;53.170;6.728;2024-02-26T08:34:43;10.07;;;4.00;;
54743;SDS011;40639;53.170;6.728;2024-02-26T08:37:09;11.55;;;3.65;;
54743;SDS011;40639;53.170;6.728;2024-02-26T08:39:35;4.30;;;2.42;;
54743;SDS011;40639;53.170;6.728;2024-02-26T08:42:01;6.75;;;3.30;;
54743;SDS011;40639;53.170;6.728;2024-02-26T08:44:27;7.50;;;3.50;;
54743;SDS011;40639;53.170;6.728;2024-02-26T08:46:54;10.63;;;4.15;;
54743;SDS011;40639;53.170;6.728;2024-02-26T08:49:20;6.30;;;3.60;;
54743;SDS011;40639;53.170;6.728;2024-02-26T08:51:48;8.98;;;4.00;;
54743;SDS011;40639;53.170;6.728;2024-02-26T08:54:14;6.10;;;3.00;;
54743;SDS011;40639;53.170;6.728;2024-02-26T08:56:40;5.80;;;3.13;;
54743;SDS011;40639;53.170;6.728;2024-02-26T08:59:06;6.63;;;3.33;;
54743;SDS011;40639;53.170;6.728;2024-02-26T09:01:32;5.10;;;2.78;;
54743;SDS011;40639;53.170;6.728;2024-02-26T09:03:59;6.53;;;2.63;;
54743;SDS011;40639;53.170;6.728;2024-02-26T09:06:25;3.90;;;2.25;;
54743;SDS011;40639;53.170;6.728;2024-02-26T09:08:51;5.55;;;2.90;;
54743;SDS011;40639;53.170;6.728;2024-02-26T09:11:17;5.50;;;2.60;;
54743;SDS011;40639;53.170;6.728;2024-02-26T09:13:43;3.85;;;2.28;;
54743;SDS011;40639;53.170;6.728;2024-02-26T09:16:09;4.28;;;2.30;;
54743;SDS011;40639;53.170;6.728;2024-02-26T09:18:38;5.03;;;2.40;;
54743;SDS011;40639;53.170;6.728;2024-02-26T09:21:04;4.55;;;2.25;;
54743;SDS011;40639;53.170;6.728;2024-02-26T09:23:33;5.60;;;2.30;;
54743;SDS011;40639;53.170;6.728;2024-02-26T09:26:00;4.45;;;2.35;;
54743;SDS011;40639;53.170;6.728;2024-02-26T09:28:26;4.68;;;2.25;;
54743;SDS011;40639;53.170;6.728;2024-02-26T09:30:52;3.33;;;2.03;;
54743;SDS011;40639;53.170;6.728;2024-02-26T09:33:19;4.32;;;2.15;;
54743;SDS011;40639;53.170;6.728;2024-02-26T09:35:45;5.53;;;2.00;;
54743;SDS011;40639;53.170;6.728;2024-02-26T09:38:11;6.28;;;2.47;;
54743;SDS011;40639;53.170;6.728;2024-02-26T09:40:39;5.47;;;1.90;;
54743;SDS011;40639;53.170;6.728;2024-02-26T09:43:05;4.55;;;1.90;;
54743;SDS011;40639;53.170;6.728;2024-02-26T09:45:34;5.20;;;2.20;;
54743;SDS011;40639;53.170;6.728;2024-02-26T09:48:01;3.58;;;2.08;;
54743;SDS011;40639;53.170;6.728;2024-02-26T09:50:28;3.75;;;2.05;;
54743;SDS011;40639;53.170;6.728;2024-02-26T09:52:55;4.43;;;2.30;;
54743;SDS011;40639;53.170;6.728;2024-02-26T09:55:24;4.70;;;2.28;;
54743;SDS011;40639;53.170;6.728;2024-02-26T09:57:51;3.95;;;2.40;;
54743;SDS011;40639;53.170;6.728;2024-02-26T10:00:17;3.28;;;2.05;;
54743;SDS011;40639;53.170;6.728;2024-02-26T10:02:47;3.95;;;2.08;;
54743;SDS011;40639;53.170;6.728;2024-02-26T10:05:17;3.88;;;2.28;;
54743;SDS011;40639;53.170;6.728;2024-02-26T10:07:47;2.78;;;1.73;;
54743;SDS011;40639;53.170;6.728;2024-02-26T10:10:17;3.88;;;1.90;;
54743;SDS011;40639;53.170;6.728;2024-02-26T10:12:43;4.97;;;2.28;;
54743;SDS011;40639;53.170;6.728;2024-02-26T10:15:09;3.60;;;2.28;;
54743;SDS011;40639;53.170;6.728;2024-02-26T10:17:35;4.10;;;2.33;;
54743;SDS011;40639;53.170;6.728;2024-02-26T10:20:12;6.43;;;3.63;;
54743;SDS011;40639;53.170;6.728;2024-02-26T10:22:48;3.63;;;2.22;;
54743;SDS011;40639;53.170;6.728;2024-02-26T10:25:16;6.80;;;3.25;;
54743;SDS011;40639;53.170;6.728;2024-02-26T10:27:43;5.45;;;3.05;;
54743;SDS011;40639;53.170;6.728;2024-02-26T10:32:43;4.32;;;2.25;;
54743;SDS011;40639;53.170;6.728;2024-02-26T10:35:09;3.85;;;2.63;;
54743;SDS011;40639;53.170;6.728;2024-02-26T10:37:35;4.47;;;2.60;;
54743;SDS011;40639;53.170;6.728;2024-02-26T10:40:01;3.50;;;2.03;;
54743;SDS011;40639;53.170;6.728;2024-02-26T10:42:28;3.92;;;2.20;;
54743;SDS011;40639;53.170;6.728;2024-02-26T10:44:54;5.13;;;2.65;;
54743;SDS011;40639;53.170;6.728;2024-02-26T10:47:20;4.47;;;2.60;;
54743;SDS011;40639;53.170;6.728;2024-02-26T10:49:47;3.38;;;2.10;;
54743;SDS011;40639;53.170;6.728;2024-02-26T10:52:13;4.20;;;2.22;;
54743;SDS011;40639;53.170;6.728;2024-02-26T10:54:41;3.10;;;2.00;;
54743;SDS011;40639;53.170;6.728;2024-02-26T10:57:09;3.40;;;1.80;;
54743;SDS011;40639;53.170;6.728;2024-02-26T10:59:37;3.95;;;2.10;;
54743;SDS011;40639;53.170;6.728;2024-02-26T11:02:04;3.08;;;1.70;;
54743;SDS011;40639;53.170;6.728;2024-02-26T11:04:32;2.55;;;1.77;;
54743;SDS011;40639;53.170;6.728;2024-02-26T11:06:58;4.60;;;1.98;;
54743;SDS011;40639;53.170;6.728;2024-02-26T11:09:26;4.38;;;1.90;;
54743;SDS011;40639;53.170;6.728;2024-02-26T11:11:53;2.58;;;1.77;;
54743;SDS011;40639;53.170;6.728;2024-02-26T11:14:20;4.00;;;1.80;;
54743;SDS011;40639;53.170;6.728;2024-02-26T11:16:47;2.63;;;1.70;;
54743;SDS011;40639;53.170;6.728;2024-02-26T11:19:13;3.72;;;1.92;;
54743;SDS011;40639;53.170;6.728;2024-02-26T11:21:39;3.63;;;1.92;;
54743;SDS011;40639;53.170;6.728;2024-02-26T11:24:13;2.08;;;1.45;;
54743;SDS011;40639;53.170;6.728;2024-02-26T11:26:45;4.63;;;1.63;;
54743;SDS011;40639;53.170;6.728;2024-02-26T11:29:13;3.67;;;1.70;;
54743;SDS011;40639;53.170;6.728;2024-02-26T11:31:41;2.42;;;1.40;;
54743;SDS011;40639;53.170;6.728;2024-02-26T11:34:08;2.90;;;1.70;;
54743;SDS011;40639;53.170;6.728;2024-02-26T11:36:34;3.58;;;1.70;;
54743;SDS011;40639;53.170;6.728;2024-02-26T11:39:03;3.22;;;1.52;;
54743;SDS011;40639;53.170;6.728;2024-02-26T11:41:29;2.97;;;1.70;;
54743;SDS011;40639;53.170;6.728;2024-02-26T11:44:00;3.30;;;2.00;;
54743;SDS011;40639;53.170;6.728;2024-02-26T11:46:27;4.55;;;2.33;;
54743;SDS011;40639;53.170;6.728;2024-02-26T11:48:55;3.92;;;2.25;;
54743;SDS011;40639;53.170;6.728;2024-02-26T11:51:26;3.28;;;2.10;;
54743;SDS011;40639;53.170;6.728;2024-02-26T11:53:52;4.18;;;2.53;;
54743;SDS011;40639;53.170;6.728;2024-02-26T11:58:45;4.63;;;2.55;;
54743;SDS011;40639;53.170;6.728;2024-02-26T12:03:57;4.68;;;2.60;;
54743;SDS011;40639;53.170;6.728;2024-02-26T12:06:23;3.90;;;2.20;;
54743;SDS011;40639;53.170;6.728;2024-02-26T12:08:50;5.47;;;3.00;;
54743;SDS011;40639;53.170;6.728;2024-02-26T12:11:16;4.85;;;2.70;;
54743;SDS011;40639;53.170;6.728;2024-02-26T12:13:45;6.57;;;3.00;;
54743;SDS011;40639;53.170;6.728;2024-02-26T12:16:21;5.70;;;2.70;;
54743;SDS011;40639;53.170;6.728;2024-02-26T12:19:01;5.97;;;3.67;;
54743;SDS011;40639;53.170;6.728;2024-02-26T12:21:28;5.30;;;2.97;;
54743;SDS011;40639;53.170;6.728;2024-02-26T12:23:54;5.93;;;3.38;;
54743;SDS011;40639;53.170;6.728;2024-02-26T12:26:20;5.57;;;3.22;;
54743;SDS011;40639;53.170;6.728;2024-02-26T12:28:46;5.00;;;2.65;;
54743;SDS011;40639;53.170;6.728;2024-02-26T12:31:12;5.32;;;3.15;;
54743;SDS011;40639;53.170;6.728;2024-02-26T12:33:39;5.38;;;2.97;;
54743;SDS011;40639;53.170;6.728;2024-02-26T12:36:05;8.80;;;3.20;;
54743;SDS011;40639;53.170;6.728;2024-02-26T12:38:32;10.57;;;3.28;;
54743;SDS011;40639;53.170;6.728;2024-02-26T12:41:00;6.72;;;3.67;;
54743;SDS011;40639;53.170;6.728;2024-02-26T12:43:26;6.82;;;3.63;;
54743;SDS011;40639;53.170;6.728;2024-02-26T12:45:52;5.85;;;3.25;;
54743;SDS011;40639;53.170;6.728;2024-02-26T12:48:18;6.47;;;3.63;;
54743;SDS011;40639;53.170;6.728;2024-02-26T12:50:45;8.93;;;3.80;;
54743;SDS011;40639;53.170;6.728;2024-02-26T12:53:12;7.75;;;4.00;;
54743;SDS011;40639;53.170;6.728;2024-02-26T12:55:38;6.03;;;3.50;;
54743;SDS011;40639;53.170;6.728;2024-02-26T12:58:06;6.57;;;3.38;;
54743;SDS011;40639;53.170;6.728;2024-02-26T13:00:32;9.13;;;4.93;;
54743;SDS011;40639;53.170;6.728;2024-02-26T13:02:59;6.68;;;3.83;;
54743;SDS011;40639;53.170;6.728;2024-02-26T13:05:25;7.53;;;3.53;;
54743;SDS011;40639;53.170;6.728;2024-02-26T13:07:52;6.85;;;3.80;;
54743;SDS011;40639;53.170;6.728;2024-02-26T13:10:18;7.53;;;3.88;;
54743;SDS011;40639;53.170;6.728;2024-02-26T13:12:48;7.53;;;4.10;;
54743;SDS011;40639;53.170;6.728;2024-02-26T13:15:21;7.30;;;3.90;;
54743;SDS011;40639;53.170;6.728;2024-02-26T13:17:48;8.80;;;4.97;;
54743;SDS011;40639;53.170;6.728;2024-02-26T13:20:27;7.78;;;4.28;;
54743;SDS011;40639;53.170;6.728;2024-02-26T13:23:03;7.72;;;3.97;;
54743;SDS011;40639;53.170;6.728;2024-02-26T13:25:30;7.45;;;3.83;;
54743;SDS011;40639;53.170;6.728;2024-02-26T13:28:12;6.65;;;3.95;;
54743;SDS011;40639;53.170;6.728;2024-02-26T13:30:41;8.50;;;4.15;;
54743;SDS011;40639;53.170;6.728;2024-02-26T13:33:10;10.57;;;4.60;;
54743;SDS011;40639;53.170;6.728;2024-02-26T13:35:37;8.45;;;4.75;;
54743;SDS011;40639;53.170;6.728;2024-02-26T13:38:04;8.18;;;4.13;;
54743;SDS011;40639;53.170;6.728;2024-02-26T13:40:33;12.52;;;5.07;;
54743;SDS011;40639;53.170;6.728;2024-02-26T13:43:00;8.07;;;4.68;;
54743;SDS011;40639;53.170;6.728;2024-02-26T13:45:26;7.50;;;3.97;;
54743;SDS011;40639;53.170;6.728;2024-02-26T13:47:52;9.75;;;5.10;;
54743;SDS011;40639;53.170;6.728;2024-02-26T13:50:18;9.68;;;4.70;;
54743;SDS011;40639;53.170;6.728;2024-02-26T13:52:47;9.70;;;4.60;;
54743;SDS011;40639;53.170;6.728;2024-02-26T13:55:18;8.90;;;4.68;;
54743;SDS011;40639;53.170;6.728;2024-02-26T13:57:45;8.13;;;4.45;;
54743;SDS011;40639;53.170;6.728;2024-02-26T14:00:12;12.10;;;5.55;;
54743;SDS011;40639;53.170;6.728;2024-02-26T14:02:38;10.15;;;5.30;;
54743;SDS011;40639;53.170;6.728;2024-02-26T14:05:04;9.93;;;5.25;;
54743;SDS011;40639;53.170;6.728;2024-02-26T14:07:30;12.65;;;5.72;;
54743;SDS011;40639;53.170;6.728;2024-02-26T14:09:57;8.95;;;5.15;;
54743;SDS011;40639;53.170;6.728;2024-02-26T14:12:23;10.60;;;5.05;;
54743;SDS011;40639;53.170;6.728;2024-02-26T14:14:50;12.40;;;5.75;;
54743;SDS011;40639;53.170;6.728;2024-02-26T14:17:18;11.43;;;5.28;;
54743;SDS011;40639;53.170;6.728;2024-02-26T14:19:44;8.68;;;5.00;;
54743;SDS011;40639;53.170;6.728;2024-02-26T14:22:13;10.27;;;5.60;;
54743;SDS011;40639;53.170;6.728;2024-02-26T14:24:40;9.57;;;5.40;;
54743;SDS011;40639;53.170;6.728;2024-02-26T14:27:10;10.30;;;5.97;;
54743;SDS011;40639;53.170;6.728;2024-02-26T14:29:41;10.20;;;5.38;;
54743;SDS011;40639;53.170;6.728;2024-02-26T14:32:08;9.93;;;5.18;;
54743;SDS011;40639;53.170;6.728;2024-02-26T14:34:34;8.63;;;4.88;;
54743;SDS011;40639;53.170;6.728;2024-02-26T14:37:00;8.82;;;4.60;;
54743;SDS011;40639;53.170;6.728;2024-02-26T14:39:27;11.00;;;4.70;;
54743;SDS011;40639;53.170;6.728;2024-02-26T14:41:54;8.70;;;5.03;;
54743;SDS011;40639;53.170;6.728;2024-02-26T14:44:20;9.07;;;4.15;;
54743;SDS011;40639;53.170;6.728;2024-02-26T14:46:46;8.50;;;4.55;;
54743;SDS011;40639;53.170;6.728;2024-02-26T14:49:12;7.85;;;4.13;;
54743;SDS011;40639;53.170;6.728;2024-02-26T14:51:38;9.23;;;4.10;;